createdAt,value
2023-06-07T00:02:10.280Z,16.60
2023-06-07T00:04:40.737Z,16.60
2023-06-07T00:07:08.748Z,16.50
2023-06-07T00:09:36.792Z,16.60
2023-06-07T00:12:04.444Z,16.50
2023-06-07T00:14:31.659Z,16.50
2023-06-07T00:16:59.445Z,16.50
2023-06-07T00:19:26.755Z,16.40
2023-06-07T00:21:54.049Z,16.30
2023-06-07T00:24:21.948Z,16.40
2023-06-07T00:26:49.603Z,16.40
2023-06-07T00:29:16.872Z,16.40
2023-06-07T00:31:44.191Z,16.30
2023-06-07T00:34:11.337Z,16.30
2023-06-07T00:36:39.157Z,16.20
2023-06-07T00:39:06.152Z,16.20
2023-06-07T00:41:33.609Z,16.20
2023-06-07T00:44:03.264Z,16.10
2023-06-07T00:46:31.950Z,16.20
2023-06-07T00:49:00.086Z,16.10
2023-06-07T00:51:31.289Z,16.10
2023-06-07T00:54:05.263Z,16.00
2023-06-07T00:56:33.031Z,16.00
2023-06-07T00:59:00.363Z,16.00
2023-06-07T01:01:28.604Z,15.90
2023-06-07T01:03:56.345Z,15.90
2023-06-07T01:06:23.715Z,15.80
2023-06-07T01:08:54.396Z,15.80
2023-06-07T01:11:22.434Z,15.70
2023-06-07T01:13:50.272Z,15.70
2023-06-07T01:16:17.723Z,15.70
2023-06-07T01:18:46.740Z,15.70
2023-06-07T01:21:16.231Z,15.60
2023-06-07T01:23:43.371Z,15.60
2023-06-07T01:26:10.941Z,15.50
2023-06-07T01:28:43.271Z,15.50
2023-06-07T01:31:11.688Z,15.50
2023-06-07T01:33:39.250Z,15.50
2023-06-07T01:36:08.046Z,15.50
2023-06-07T01:38:35.560Z,15.50
2023-06-07T01:41:03.193Z,15.40
2023-06-07T01:43:31.292Z,15.40
2023-06-07T01:45:59.833Z,15.40
2023-06-07T01:48:27.454Z,15.40
2023-06-07T01:50:54.395Z,15.30
2023-06-07T01:53:21.383Z,15.30
2023-06-07T01:56:05.308Z,15.30
2023-06-07T01:59:04.892Z,15.30
2023-06-07T02:02:00.916Z,15.20
2023-06-07T02:04:29.710Z,15.10
2023-06-07T02:07:03.814Z,15.10
2023-06-07T02:09:37.053Z,15.10
2023-06-07T02:12:07.391Z,15.10
2023-06-07T02:14:34.510Z,15.00
2023-06-07T02:17:01.565Z,14.90
2023-06-07T02:19:29.622Z,14.90
2023-06-07T02:21:56.587Z,14.90
2023-06-07T02:24:24.019Z,14.90
2023-06-07T02:26:51.903Z,14.90
2023-06-07T02:29:18.855Z,14.80
2023-06-07T02:31:47.510Z,14.80
2023-06-07T02:34:15.181Z,14.80
2023-06-07T02:36:42.201Z,14.70
2023-06-07T02:39:12.611Z,14.70
2023-06-07T02:41:39.648Z,14.70
2023-06-07T02:44:06.562Z,14.70
2023-06-07T02:46:33.529Z,14.70
2023-06-07T02:49:00.668Z,14.70
2023-06-07T02:51:27.693Z,14.70
2023-06-07T02:53:55.806Z,14.70
2023-06-07T02:56:24.501Z,14.70
2023-06-07T02:58:51.521Z,14.70
2023-06-07T03:01:18.892Z,14.60
2023-06-07T03:03:45.892Z,14.60
2023-06-07T03:06:13.002Z,14.60
2023-06-07T03:08:40.026Z,14.60
2023-06-07T03:11:07.430Z,14.60
2023-06-07T03:13:34.361Z,14.60
2023-06-07T03:16:01.322Z,14.60
2023-06-07T03:18:28.337Z,14.60
2023-06-07T03:20:55.448Z,14.60
2023-06-07T03:23:22.418Z,14.50
2023-06-07T03:25:50.018Z,14.50
2023-06-07T03:28:17.290Z,14.50
2023-06-07T03:30:44.330Z,14.50
2023-06-07T03:33:11.318Z,14.40
2023-06-07T03:35:39.691Z,14.40
2023-06-07T03:38:07.715Z,14.40
2023-06-07T03:40:34.647Z,14.40
2023-06-07T03:43:02.708Z,14.40
2023-06-07T03:45:30.194Z,14.40
2023-06-07T03:47:58.257Z,14.40
2023-06-07T03:50:25.483Z,14.40
2023-06-07T03:52:52.585Z,14.40
2023-06-07T03:55:21.161Z,14.40
2023-06-07T03:57:51.160Z,14.40
2023-06-07T04:00:18.953Z,14.40
2023-06-07T04:02:46.862Z,14.50
2023-06-07T04:05:14.186Z,14.40
2023-06-07T04:07:41.880Z,14.40
2023-06-07T04:10:09.158Z,14.40
2023-06-07T04:12:36.201Z,14.40
2023-06-07T04:15:03.464Z,14.40
2023-06-07T04:17:30.886Z,14.40
2023-06-07T04:19:58.319Z,14.50
2023-06-07T04:22:25.776Z,14.60
2023-06-07T04:24:53.053Z,14.60
2023-06-07T04:27:20.245Z,14.60
2023-06-07T04:29:50.528Z,14.70
2023-06-07T04:32:20.442Z,14.60
2023-06-07T04:34:48.781Z,14.60
2023-06-07T04:37:17.429Z,14.60
2023-06-07T04:39:46.256Z,14.50
2023-06-07T04:42:14.161Z,14.50
2023-06-07T04:44:44.147Z,14.50
2023-06-07T04:47:13.332Z,14.50
2023-06-07T04:49:41.903Z,14.50
2023-06-07T04:52:09.320Z,14.50
2023-06-07T04:54:38.927Z,14.50
2023-06-07T04:57:10.119Z,14.50
2023-06-07T04:59:43.692Z,14.50
2023-06-07T05:02:11.686Z,14.50
2023-06-07T05:04:39.544Z,14.50
2023-06-07T05:07:10.112Z,14.50
2023-06-07T05:09:46.953Z,14.50
2023-06-07T05:12:14.225Z,14.50
2023-06-07T05:14:42.090Z,14.50
2023-06-07T05:17:09.167Z,14.50
2023-06-07T05:19:36.241Z,14.50
2023-06-07T05:22:03.304Z,14.60
2023-06-07T05:24:32.504Z,14.60
2023-06-07T05:26:59.947Z,14.60
2023-06-07T05:29:27.445Z,14.70
2023-06-07T05:31:54.745Z,14.70
2023-06-07T05:34:25.136Z,14.70
2023-06-07T05:36:52.593Z,14.80
2023-06-07T05:39:19.646Z,14.90
2023-06-07T05:41:46.703Z,14.90
2023-06-07T05:44:13.824Z,15.00
2023-06-07T05:46:41.228Z,15.10
2023-06-07T05:49:08.261Z,15.10
2023-06-07T05:51:35.885Z,15.20
2023-06-07T05:54:03.562Z,15.30
2023-06-07T05:56:30.517Z,15.40
2023-06-07T05:58:57.771Z,15.50
2023-06-07T06:01:24.795Z,15.60
2023-06-07T06:03:51.825Z,15.70
2023-06-07T06:06:19.761Z,15.70
2023-06-07T06:08:47.228Z,15.80
2023-06-07T06:11:15.331Z,15.80
2023-06-07T06:13:44.337Z,15.90
2023-06-07T06:16:12.884Z,16.10
2023-06-07T06:18:44.215Z,16.20
2023-06-07T06:21:11.385Z,16.30
2023-06-07T06:23:38.419Z,16.50
2023-06-07T06:26:05.850Z,16.60
2023-06-07T06:28:32.791Z,16.80
2023-06-07T06:31:02.654Z,17.00
2023-06-07T06:33:29.799Z,17.20
2023-06-07T06:35:57.506Z,17.30
2023-06-07T06:38:24.544Z,17.50
2023-06-07T06:40:51.493Z,17.70
2023-06-07T06:43:18.522Z,17.90
2023-06-07T06:45:45.658Z,18.10
2023-06-07T06:48:13.677Z,18.30
2023-06-07T06:50:40.706Z,18.40
2023-06-07T06:53:07.693Z,18.50
2023-06-07T06:55:35.966Z,18.60
2023-06-07T06:58:02.911Z,18.70
2023-06-07T07:00:32.932Z,18.80
2023-06-07T07:03:00.030Z,18.80
2023-06-07T07:05:30.182Z,18.90
2023-06-07T07:07:57.901Z,19.00
2023-06-07T07:10:24.983Z,19.20
2023-06-07T07:12:51.927Z,19.40
2023-06-07T07:15:19.003Z,19.70
2023-06-07T07:17:48.902Z,20.00
2023-06-07T07:20:18.508Z,20.40
2023-06-07T07:22:47.561Z,20.80
2023-06-07T07:25:19.151Z,21.40
2023-06-07T07:27:46.191Z,22.00
2023-06-07T07:30:13.474Z,22.40
2023-06-07T07:32:43.366Z,22.70
2023-06-07T07:35:10.311Z,23.10
2023-06-07T07:37:39.452Z,23.30
2023-06-07T07:40:10.273Z,23.70
2023-06-07T07:42:38.552Z,23.80
2023-06-07T07:45:06.484Z,24.00
2023-06-07T07:47:34.397Z,24.00
2023-06-07T07:50:02.232Z,24.00
2023-06-07T07:52:29.337Z,23.90
2023-06-07T07:54:56.567Z,24.00
2023-06-07T07:57:23.575Z,24.20
2023-06-07T07:59:50.534Z,24.40
2023-06-07T08:02:17.751Z,24.80
2023-06-07T08:04:44.915Z,25.00
2023-06-07T08:07:16.656Z,25.40
2023-06-07T08:09:43.752Z,25.80
2023-06-07T08:12:12.567Z,25.90
2023-06-07T08:14:39.525Z,26.20
2023-06-07T08:17:06.636Z,26.50
2023-06-07T08:19:34.638Z,26.70
2023-06-07T08:22:02.187Z,26.70
2023-06-07T08:24:29.093Z,26.70
2023-06-07T08:26:56.115Z,26.60
2023-06-07T08:29:23.387Z,26.50
2023-06-07T08:31:50.629Z,26.20
2023-06-07T08:34:17.974Z,26.20
2023-06-07T08:36:45.676Z,26.30
2023-06-07T08:39:12.929Z,26.50
2023-06-07T08:41:40.561Z,26.70
2023-06-07T08:44:07.590Z,26.80
2023-06-07T08:46:35.302Z,26.70
2023-06-07T08:49:04.245Z,26.60
2023-06-07T08:51:37.485Z,26.60
2023-06-07T08:54:05.960Z,26.60
2023-06-07T08:56:33.944Z,26.70
2023-06-07T08:59:04.212Z,26.70
2023-06-07T09:01:32.492Z,26.70
2023-06-07T09:04:00.039Z,26.80
2023-06-07T09:06:28.169Z,26.90
2023-06-07T09:08:55.169Z,27.00
2023-06-07T09:11:22.278Z,27.10
2023-06-07T09:13:50.602Z,27.20
2023-06-07T09:16:18.448Z,27.30
2023-06-07T09:18:56.770Z,27.50
2023-06-07T09:21:29.007Z,27.60
2023-06-07T09:24:00.403Z,27.60
2023-06-07T09:26:40.713Z,27.40
2023-06-07T09:29:11.670Z,27.20
2023-06-07T09:31:39.235Z,27.00
2023-06-07T09:34:27.380Z,26.80
2023-06-07T09:37:00.296Z,26.70
2023-06-07T09:39:34.148Z,26.50
2023-06-07T09:42:01.156Z,26.40
2023-06-07T09:44:30.842Z,26.20
2023-06-07T09:47:04.215Z,26.20
2023-06-07T09:49:36.667Z,26.10
2023-06-07T09:52:06.425Z,26.20
2023-06-07T09:54:54.810Z,26.30
2023-06-07T09:57:27.598Z,26.40
2023-06-07T10:00:16.622Z,26.30
2023-06-07T10:02:45.793Z,26.30
2023-06-07T10:05:14.841Z,26.40
2023-06-07T10:07:46.134Z,26.40
2023-06-07T10:10:16.147Z,26.50
2023-06-07T10:12:46.659Z,26.30
2023-06-07T10:15:22.776Z,26.50
2023-06-07T10:18:23.352Z,26.50
2023-06-07T10:20:58.333Z,26.60
2023-06-07T10:23:54.759Z,26.70
2023-06-07T10:26:40.401Z,26.70
2023-06-07T10:29:21.615Z,26.70
2023-06-07T10:32:02.144Z,26.80
2023-06-07T10:34:31.717Z,26.90
2023-06-07T10:37:00.607Z,27.00
2023-06-07T10:39:27.578Z,27.00
2023-06-07T10:41:55.263Z,27.00
2023-06-07T10:44:22.325Z,27.00
2023-06-07T10:46:52.056Z,27.00
2023-06-07T10:49:38.753Z,27.20
2023-06-07T10:52:07.574Z,27.30
2023-06-07T10:54:36.337Z,27.30
2023-06-07T10:57:04.316Z,27.20
2023-06-07T10:59:32.060Z,27.10
2023-06-07T11:02:22.598Z,27.10
2023-06-07T11:04:51.541Z,27.20
2023-06-07T11:07:23.919Z,27.20
2023-06-07T11:10:11.644Z,27.30
2023-06-07T11:12:42.099Z,27.10
2023-06-07T11:15:19.102Z,27.20
2023-06-07T11:18:01.362Z,27.20
2023-06-07T11:20:40.214Z,27.20
2023-06-07T11:23:29.643Z,27.20
2023-06-07T11:26:00.172Z,27.20
2023-06-07T11:28:30.138Z,27.20
2023-06-07T11:30:57.777Z,27.30
2023-06-07T11:33:25.003Z,27.30
2023-06-07T11:35:56.658Z,27.40
2023-06-07T11:38:25.646Z,27.50
2023-06-07T11:40:52.707Z,27.50
2023-06-07T11:43:24.937Z,27.50
2023-06-07T11:45:55.913Z,27.60
2023-06-07T11:48:28.300Z,27.80
2023-06-07T11:50:55.693Z,27.90
2023-06-07T11:53:23.169Z,27.90
2023-06-07T11:55:50.407Z,27.90
2023-06-07T11:58:17.442Z,27.90
2023-06-07T12:00:45.439Z,28.00
2023-06-07T12:03:14.149Z,28.00
2023-06-07T12:05:41.529Z,28.20
2023-06-07T12:08:18.190Z,28.30
2023-06-07T12:10:54.304Z,28.30
2023-06-07T12:13:22.362Z,28.40
2023-06-07T12:15:59.788Z,28.40
2023-06-07T12:18:36.903Z,28.50
2023-06-07T12:21:12.736Z,28.70
2023-06-07T12:23:53.943Z,28.60
2023-06-07T12:26:27.632Z,28.50
2023-06-07T12:28:56.022Z,28.30
2023-06-07T12:31:28.063Z,28.10
2023-06-07T12:34:00.566Z,28.00
2023-06-07T12:36:35.802Z,27.90
2023-06-07T12:39:10.125Z,27.70
2023-06-07T12:41:41.433Z,27.70
2023-06-07T12:44:11.530Z,27.40
2023-06-07T12:46:38.669Z,27.20
2023-06-07T12:49:05.794Z,27.20
2023-06-07T12:51:34.769Z,27.10
2023-06-07T12:54:02.367Z,27.20
2023-06-07T12:56:30.713Z,27.40
2023-06-07T12:58:58.052Z,27.50
2023-06-07T13:01:25.551Z,27.70
2023-06-07T13:03:53.260Z,27.80
2023-06-07T13:06:21.894Z,27.80
2023-06-07T13:09:01.730Z,27.70
2023-06-07T13:11:28.881Z,27.70
2023-06-07T13:13:55.928Z,27.70
2023-06-07T13:16:23.940Z,27.70
2023-06-07T13:18:51.116Z,27.70
2023-06-07T13:21:19.124Z,27.80
2023-06-07T13:23:46.673Z,27.90
2023-06-07T13:26:14.604Z,28.00
2023-06-07T13:28:45.323Z,28.10
2023-06-07T13:31:13.296Z,28.20
2023-06-07T13:33:41.580Z,28.30
2023-06-07T13:36:08.883Z,28.50
2023-06-07T13:38:37.205Z,28.70
2023-06-07T13:41:04.218Z,28.80
2023-06-07T13:43:51.210Z,28.90
2023-06-07T13:46:18.237Z,29.00
2023-06-07T13:48:45.355Z,29.00
2023-06-07T13:51:13.648Z,29.10
2023-06-07T13:53:44.899Z,29.20
2023-06-07T13:56:12.001Z,29.30
2023-06-07T13:58:39.165Z,29.40
2023-06-07T14:01:07.341Z,29.50
2023-06-07T14:03:39.854Z,29.60
2023-06-07T14:06:07.438Z,29.70
2023-06-07T14:08:34.966Z,29.80
2023-06-07T14:11:02.140Z,29.90
2023-06-07T14:13:32.581Z,29.90
2023-06-07T14:15:59.694Z,29.90
2023-06-07T14:18:27.086Z,29.90
2023-06-07T14:20:54.257Z,29.80
2023-06-07T14:23:21.653Z,29.60
2023-06-07T14:25:48.711Z,29.40
2023-06-07T14:28:17.577Z,29.40
2023-06-07T14:30:47.050Z,29.40
2023-06-07T14:33:14.672Z,29.30
2023-06-07T14:35:41.912Z,29.30
2023-06-07T14:38:08.862Z,29.40
2023-06-07T14:40:35.873Z,29.50
2023-06-07T14:43:02.928Z,29.50
2023-06-07T14:45:30.652Z,29.50
2023-06-07T14:47:57.803Z,29.60
2023-06-07T14:50:24.870Z,29.50
2023-06-07T14:52:51.786Z,29.40
2023-06-07T14:55:18.854Z,29.40
2023-06-07T14:57:46.419Z,29.30
2023-06-07T15:00:14.343Z,29.30
2023-06-07T15:02:41.322Z,29.30
2023-06-07T15:05:09.105Z,29.20
2023-06-07T15:07:36.379Z,29.20
2023-06-07T15:10:03.921Z,29.30
2023-06-07T15:12:31.263Z,29.30
2023-06-07T15:14:58.407Z,29.30
2023-06-07T15:17:25.434Z,29.30
2023-06-07T15:19:52.589Z,29.40
2023-06-07T15:22:20.054Z,29.40
2023-06-07T15:24:47.071Z,29.40
2023-06-07T15:27:14.011Z,29.40
2023-06-07T15:29:41.027Z,29.50
2023-06-07T15:32:08.390Z,29.60
2023-06-07T15:34:35.786Z,29.60
2023-06-07T15:37:02.881Z,29.60
2023-06-07T15:39:29.860Z,29.60
2023-06-07T15:41:56.941Z,29.70
2023-06-07T15:44:24.605Z,29.70
2023-06-07T15:46:51.643Z,29.70
2023-06-07T15:49:19.337Z,29.70
2023-06-07T15:51:46.534Z,29.60
2023-06-07T15:54:13.967Z,29.50
2023-06-07T15:56:44.168Z,29.40
2023-06-07T15:59:11.953Z,29.30
2023-06-07T16:01:39.530Z,29.10
2023-06-07T16:04:07.162Z,28.90
2023-06-07T16:06:36.259Z,28.70
2023-06-07T16:09:09.181Z,28.60
2023-06-07T16:11:41.591Z,28.50
2023-06-07T16:14:11.847Z,28.30
2023-06-07T16:16:40.349Z,28.10
2023-06-07T16:19:10.350Z,28.00
2023-06-07T16:21:41.014Z,27.80
2023-06-07T16:24:08.864Z,27.60
2023-06-07T16:26:36.162Z,27.40
2023-06-07T16:29:05.065Z,27.30
2023-06-07T16:31:33.386Z,27.30
2023-06-07T16:34:00.452Z,27.00
2023-06-07T16:36:27.428Z,26.80
2023-06-07T16:38:55.249Z,26.70
2023-06-07T16:41:27.211Z,26.60
2023-06-07T16:43:55.885Z,26.40
2023-06-07T16:46:22.987Z,26.40
2023-06-07T16:48:49.963Z,26.30
2023-06-07T16:51:17.367Z,26.30
2023-06-07T16:53:44.864Z,26.20
2023-06-07T16:56:12.055Z,26.10
2023-06-07T16:58:39.076Z,26.00
2023-06-07T17:01:06.478Z,25.90
2023-06-07T17:03:33.837Z,25.80
2023-06-07T17:06:00.996Z,25.70
2023-06-07T17:08:27.919Z,25.70
2023-06-07T17:10:55.403Z,25.60
2023-06-07T17:13:22.394Z,25.60
2023-06-07T17:15:50.657Z,25.50
2023-06-07T17:18:19.253Z,25.60
2023-06-07T17:20:48.383Z,25.60
2023-06-07T17:23:16.499Z,25.50
2023-06-07T17:25:43.497Z,25.50
2023-06-07T17:28:10.678Z,25.60
2023-06-07T17:30:41.546Z,25.60
2023-06-07T17:33:08.507Z,25.60
2023-06-07T17:35:35.659Z,25.60
2023-06-07T17:38:02.754Z,25.50
2023-06-07T17:40:29.775Z,25.50
2023-06-07T17:42:58.565Z,25.40
2023-06-07T17:45:27.246Z,25.30
2023-06-07T17:47:55.549Z,25.20
2023-06-07T17:50:37.342Z,25.20
2023-06-07T17:53:13.483Z,25.10
2023-06-07T17:55:42.246Z,25.10
2023-06-07T17:58:09.178Z,25.00
2023-06-07T18:00:36.425Z,24.80
2023-06-07T18:03:05.031Z,24.70
2023-06-07T18:05:32.036Z,24.60
2023-06-07T18:07:59.021Z,24.60
2023-06-07T18:10:26.022Z,24.50
2023-06-07T18:12:53.034Z,24.50
2023-06-07T18:15:20.027Z,24.40
2023-06-07T18:17:47.278Z,24.40
2023-06-07T18:20:14.484Z,24.30
2023-06-07T18:22:41.716Z,24.20
2023-06-07T18:25:13.076Z,24.10
2023-06-07T18:27:40.586Z,24.00
2023-06-07T18:30:11.491Z,23.90
2023-06-07T18:32:38.666Z,23.80
2023-06-07T18:35:06.038Z,23.60
2023-06-07T18:37:33.563Z,23.50
2023-06-07T18:40:05.750Z,23.50
2023-06-07T18:42:33.219Z,23.40
2023-06-07T18:45:00.932Z,23.30
2023-06-07T18:47:28.156Z,23.20
2023-06-07T18:49:55.206Z,23.10
2023-06-07T18:52:22.627Z,22.90
2023-06-07T18:54:50.205Z,22.90
2023-06-07T18:57:17.436Z,22.80
2023-06-07T18:59:44.407Z,22.60
2023-06-07T19:02:11.471Z,22.50
2023-06-07T19:04:38.676Z,22.40
2023-06-07T19:07:05.982Z,22.30
2023-06-07T19:09:33.585Z,22.30
2023-06-07T19:12:00.627Z,22.20
2023-06-07T19:14:29.522Z,22.20
2023-06-07T19:16:58.184Z,22.10
2023-06-07T19:19:25.398Z,22.10
2023-06-07T19:21:53.562Z,22.00
2023-06-07T19:24:20.641Z,22.00
2023-06-07T19:26:48.059Z,21.80
2023-06-07T19:29:14.992Z,21.70
2023-06-07T19:31:42.149Z,21.70
2023-06-07T19:34:12.277Z,21.60
2023-06-07T19:36:39.332Z,21.40
2023-06-07T19:39:06.505Z,21.30
2023-06-07T19:41:33.500Z,21.20
2023-06-07T19:44:00.481Z,21.10
2023-06-07T19:46:27.683Z,21.00
2023-06-07T19:48:55.227Z,20.90
2023-06-07T19:51:22.841Z,20.90
2023-06-07T19:53:52.552Z,20.80
2023-06-07T19:56:19.441Z,20.80
2023-06-07T19:58:46.532Z,20.70
2023-06-07T20:01:13.567Z,20.60
2023-06-07T20:03:40.624Z,20.60
2023-06-07T20:06:10.428Z,20.60
2023-06-07T20:08:37.368Z,20.60
2023-06-07T20:11:04.478Z,20.50
2023-06-07T20:13:31.530Z,20.40
2023-06-07T20:15:58.654Z,20.30
2023-06-07T20:18:26.433Z,20.30
2023-06-07T20:20:53.408Z,20.20
2023-06-07T20:23:20.854Z,20.20
2023-06-07T20:25:47.815Z,20.20
2023-06-07T20:28:14.739Z,20.10
2023-06-07T20:30:41.866Z,20.10
2023-06-07T20:33:08.895Z,20.10
2023-06-07T20:35:35.989Z,20.00
2023-06-07T20:38:02.992Z,20.00
2023-06-07T20:40:30.331Z,19.90
2023-06-07T20:42:57.399Z,19.90
2023-06-07T20:45:25.129Z,19.80
2023-06-07T20:47:52.298Z,19.70
2023-06-07T20:50:19.387Z,19.70
2023-06-07T20:52:46.806Z,19.60
2023-06-07T20:55:13.932Z,19.60
2023-06-07T20:57:41.237Z,19.50
2023-06-07T21:00:09.999Z,19.50
2023-06-07T21:02:38.120Z,19.40
2023-06-07T21:05:05.889Z,19.40
2023-06-07T21:07:33.242Z,19.40
2023-06-07T21:10:00.277Z,19.30
2023-06-07T21:12:27.346Z,19.30
2023-06-07T21:14:56.634Z,19.20
2023-06-07T21:17:23.742Z,19.10
2023-06-07T21:19:52.327Z,19.10
2023-06-07T21:22:19.454Z,19.10
2023-06-07T21:24:46.493Z,19.00
2023-06-07T21:27:13.595Z,19.00
2023-06-07T21:29:41.120Z,18.90
2023-06-07T21:32:09.117Z,18.80
2023-06-07T21:34:36.256Z,18.80
2023-06-07T21:37:03.297Z,18.80
2023-06-07T21:39:30.392Z,18.70
2023-06-07T21:41:58.447Z,18.70
2023-06-07T21:44:25.584Z,18.70
2023-06-07T21:46:52.730Z,18.70
2023-06-07T21:49:28.920Z,18.60
2023-06-07T21:51:55.989Z,18.50
2023-06-07T21:54:23.393Z,18.50
2023-06-07T21:56:50.587Z,18.50
2023-06-07T21:59:17.640Z,18.50
2023-06-07T22:01:44.834Z,18.50
2023-06-07T22:04:12.392Z,18.50
2023-06-07T22:06:39.555Z,18.50
2023-06-07T22:09:06.594Z,18.40
2023-06-07T22:11:34.850Z,18.40
2023-06-07T22:14:03.877Z,18.30
2023-06-07T22:16:35.471Z,18.30
2023-06-07T22:19:02.675Z,18.20
2023-06-07T22:21:31.462Z,18.10
2023-06-07T22:23:59.023Z,18.10
2023-06-07T22:26:30.192Z,18.10
2023-06-07T22:29:01.376Z,18.10
2023-06-07T22:31:37.805Z,18.00
2023-06-07T22:34:09.175Z,18.00
2023-06-07T22:36:43.474Z,17.90
2023-06-07T22:39:13.167Z,17.90
2023-06-07T22:41:41.784Z,17.90
2023-06-07T22:44:10.562Z,17.90
2023-06-07T22:46:38.903Z,17.80
2023-06-07T22:49:12.565Z,17.80
2023-06-07T22:51:42.106Z,17.70
2023-06-07T22:54:09.361Z,17.70
2023-06-07T22:56:36.491Z,17.70
2023-06-07T22:59:03.505Z,17.70
2023-06-07T23:01:30.671Z,17.70
2023-06-07T23:03:58.241Z,17.80
2023-06-07T23:06:34.335Z,17.80
2023-06-07T23:09:02.408Z,17.80
2023-06-07T23:11:30.261Z,17.80
2023-06-07T23:14:00.905Z,17.80
2023-06-07T23:16:29.334Z,17.80
2023-06-07T23:18:58.167Z,17.80
2023-06-07T23:21:26.752Z,17.80
2023-06-07T23:23:54.140Z,17.80
2023-06-07T23:26:21.765Z,17.80
2023-06-07T23:28:48.829Z,17.80
2023-06-07T23:31:16.131Z,17.70
2023-06-07T23:33:43.409Z,17.70
2023-06-07T23:36:14.574Z,17.60
2023-06-07T23:38:41.792Z,17.60
2023-06-07T23:41:09.101Z,17.50
2023-06-07T23:43:36.333Z,17.40
2023-06-07T23:46:04.427Z,17.40
2023-06-07T23:48:31.538Z,17.40
2023-06-07T23:50:58.563Z,17.40
2023-06-07T23:53:25.807Z,17.40
2023-06-07T23:55:54.082Z,17.40
2023-06-07T23:58:21.010Z,17.40
